sensor_id;sensor_type;location;lat;lon;timestamp;temperature;humidity
20795;DHT22;28087;-33.874;151.240;2023-04-29T00:01:36;21.00;77.90
20795;DHT22;28087;-33.874;151.240;2023-04-29T00:04:12;21.10;78.00
20795;DHT22;28087;-33.874;151.240;2023-04-29T00:06:48;21.10;78.00
20795;DHT22;28087;-33.874;151.240;2023-04-29T00:09:23;21.10;78.40
20795;DHT22;28087;-33.874;151.240;2023-04-29T00:11:58;21.10;78.30
20795;DHT22;28087;-33.874;151.240;2023-04-29T00:14:34;21.00;78.10
20795;DHT22;28087;-33.874;151.240;2023-04-29T00:17:14;21.00;77.80
20795;DHT22;28087;-33.874;151.240;2023-04-29T00:19:50;21.10;78.20
20795;DHT22;28087;-33.874;151.240;2023-04-29T00:22:29;21.10;78.40
20795;DHT22;28087;-33.874;151.240;2023-04-29T00:25:10;21.00;78.50
20795;DHT22;28087;-33.874;151.240;2023-04-29T00:27:46;21.00;78.30
20795;DHT22;28087;-33.874;151.240;2023-04-29T00:30:22;21.00;78.30
20795;DHT22;28087;-33.874;151.240;2023-04-29T00:33:00;21.00;77.80
20795;DHT22;28087;-33.874;151.240;2023-04-29T00:35:38;21.00;78.10
20795;DHT22;28087;-33.874;151.240;2023-04-29T00:38:13;20.80;78.10
20795;DHT22;28087;-33.874;151.240;2023-04-29T00:40:48;20.90;77.90
20795;DHT22;28087;-33.874;151.240;2023-04-29T00:43:25;21.00;77.90
20795;DHT22;28087;-33.874;151.240;2023-04-29T00:46:00;21.10;77.90
20795;DHT22;28087;-33.874;151.240;2023-04-29T00:48:38;21.00;77.80
20795;DHT22;28087;-33.874;151.240;2023-04-29T00:51:17;20.90;77.70
20795;DHT22;28087;-33.874;151.240;2023-04-29T00:53:56;21.00;78.40
20795;DHT22;28087;-33.874;151.240;2023-04-29T00:56:32;20.90;79.00
20795;DHT22;28087;-33.874;151.240;2023-04-29T00:59:09;21.00;78.90
20795;DHT22;28087;-33.874;151.240;2023-04-29T01:01:47;20.90;79.10
20795;DHT22;28087;-33.874;151.240;2023-04-29T01:04:28;21.00;79.30
20795;DHT22;28087;-33.874;151.240;2023-04-29T01:07:12;21.00;79.60
20795;DHT22;28087;-33.874;151.240;2023-04-29T01:09:54;21.00;79.40
20795;DHT22;28087;-33.874;151.240;2023-04-29T01:12:43;20.90;79.20
20795;DHT22;28087;-33.874;151.240;2023-04-29T01:15:24;20.90;79.40
20795;DHT22;28087;-33.874;151.240;2023-04-29T01:18:07;20.90;79.50
20795;DHT22;28087;-33.874;151.240;2023-04-29T01:21:03;20.90;79.70
20795;DHT22;28087;-33.874;151.240;2023-04-29T01:23:57;20.90;79.60
20795;DHT22;28087;-33.874;151.240;2023-04-29T01:26:36;20.90;79.50
20795;DHT22;28087;-33.874;151.240;2023-04-29T01:29:39;20.90;79.30
20795;DHT22;28087;-33.874;151.240;2023-04-29T01:32:28;20.90;79.50
20795;DHT22;28087;-33.874;151.240;2023-04-29T01:35:17;20.90;79.50
20795;DHT22;28087;-33.874;151.240;2023-04-29T01:38:02;20.90;79.50
20795;DHT22;28087;-33.874;151.240;2023-04-29T01:41:10;20.90;79.40
20795;DHT22;28087;-33.874;151.240;2023-04-29T01:43:52;21.00;79.60
20795;DHT22;28087;-33.874;151.240;2023-04-29T01:46:31;21.10;79.80
20795;DHT22;28087;-33.874;151.240;2023-04-29T01:49:08;20.90;79.90
20795;DHT22;28087;-33.874;151.240;2023-04-29T01:51:45;20.90;79.90
20795;DHT22;28087;-33.874;151.240;2023-04-29T01:54:22;21.00;79.80
20795;DHT22;28087;-33.874;151.240;2023-04-29T01:57:01;20.90;79.50
20795;DHT22;28087;-33.874;151.240;2023-04-29T02:00:00;21.00;79.40
20795;DHT22;28087;-33.874;151.240;2023-04-29T02:02:56;21.00;79.30
20795;DHT22;28087;-33.874;151.240;2023-04-29T02:05:43;21.00;79.20
20795;DHT22;28087;-33.874;151.240;2023-04-29T02:08:19;21.10;79.10
20795;DHT22;28087;-33.874;151.240;2023-04-29T02:10:57;21.10;79.10
20795;DHT22;28087;-33.874;151.240;2023-04-29T02:13:42;21.10;79.20
20795;DHT22;28087;-33.874;151.240;2023-04-29T02:16:18;21.10;79.20
20795;DHT22;28087;-33.874;151.240;2023-04-29T02:18:59;21.00;79.00
20795;DHT22;28087;-33.874;151.240;2023-04-29T02:21:36;21.00;78.90
20795;DHT22;28087;-33.874;151.240;2023-04-29T02:24:13;21.10;79.30
20795;DHT22;28087;-33.874;151.240;2023-04-29T02:26:50;21.10;79.00
20795;DHT22;28087;-33.874;151.240;2023-04-29T02:29:27;21.10;79.00
20795;DHT22;28087;-33.874;151.240;2023-04-29T02:32:04;21.10;78.90
20795;DHT22;28087;-33.874;151.240;2023-04-29T02:34:40;21.10;78.90
20795;DHT22;28087;-33.874;151.240;2023-04-29T02:37:17;21.00;79.00
20795;DHT22;28087;-33.874;151.240;2023-04-29T02:39:52;21.10;78.90
20795;DHT22;28087;-33.874;151.240;2023-04-29T02:42:31;21.00;78.50
20795;DHT22;28087;-33.874;151.240;2023-04-29T02:45:10;20.80;78.60
20795;DHT22;28087;-33.874;151.240;2023-04-29T02:47:46;20.80;78.70
20795;DHT22;28087;-33.874;151.240;2023-04-29T02:50:23;20.80;78.70
20795;DHT22;28087;-33.874;151.240;2023-04-29T02:53:00;20.80;78.60
20795;DHT22;28087;-33.874;151.240;2023-04-29T02:55:36;20.80;79.00
20795;DHT22;28087;-33.874;151.240;2023-04-29T02:58:16;20.80;79.20
20795;DHT22;28087;-33.874;151.240;2023-04-29T03:00:53;20.70;79.30
20795;DHT22;28087;-33.874;151.240;2023-04-29T03:03:29;20.80;79.30
20795;DHT22;28087;-33.874;151.240;2023-04-29T03:06:05;20.80;79.30
20795;DHT22;28087;-33.874;151.240;2023-04-29T03:08:42;20.70;79.30
20795;DHT22;28087;-33.874;151.240;2023-04-29T03:11:17;20.80;79.50
20795;DHT22;28087;-33.874;151.240;2023-04-29T03:13:56;20.80;79.50
20795;DHT22;28087;-33.874;151.240;2023-04-29T03:16:35;21.00;79.30
20795;DHT22;28087;-33.874;151.240;2023-04-29T03:19:11;20.90;79.40
20795;DHT22;28087;-33.874;151.240;2023-04-29T03:21:46;20.80;78.70
20795;DHT22;28087;-33.874;151.240;2023-04-29T03:24:24;20.80;78.90
20795;DHT22;28087;-33.874;151.240;2023-04-29T03:27:00;20.90;79.40
20795;DHT22;28087;-33.874;151.240;2023-04-29T03:29:36;20.90;79.50
20795;DHT22;28087;-33.874;151.240;2023-04-29T03:32:14;21.00;79.30
20795;DHT22;28087;-33.874;151.240;2023-04-29T03:34:50;21.00;79.30
20795;DHT22;28087;-33.874;151.240;2023-04-29T03:37:36;21.10;79.20
20795;DHT22;28087;-33.874;151.240;2023-04-29T03:40:26;21.00;78.90
20795;DHT22;28087;-33.874;151.240;2023-04-29T03:43:02;21.10;78.70
20795;DHT22;28087;-33.874;151.240;2023-04-29T03:45:50;21.10;78.60
20795;DHT22;28087;-33.874;151.240;2023-04-29T03:48:28;21.10;78.30
20795;DHT22;28087;-33.874;151.240;2023-04-29T03:51:04;21.10;77.80
20795;DHT22;28087;-33.874;151.240;2023-04-29T03:53:42;21.00;78.70
20795;DHT22;28087;-33.874;151.240;2023-04-29T03:56:20;21.00;78.60
20795;DHT22;28087;-33.874;151.240;2023-04-29T03:58:56;21.10;78.80
20795;DHT22;28087;-33.874;151.240;2023-04-29T04:01:33;21.20;78.50
20795;DHT22;28087;-33.874;151.240;2023-04-29T04:04:11;21.20;78.70
20795;DHT22;28087;-33.874;151.240;2023-04-29T04:06:50;21.10;78.60
20795;DHT22;28087;-33.874;151.240;2023-04-29T04:09:30;21.00;78.60
20795;DHT22;28087;-33.874;151.240;2023-04-29T04:12:07;21.00;78.90
20795;DHT22;28087;-33.874;151.240;2023-04-29T04:14:43;21.00;79.00
20795;DHT22;28087;-33.874;151.240;2023-04-29T04:17:19;21.00;78.90
20795;DHT22;28087;-33.874;151.240;2023-04-29T04:19:57;20.90;78.60
20795;DHT22;28087;-33.874;151.240;2023-04-29T04:22:33;20.90;79.00
20795;DHT22;28087;-33.874;151.240;2023-04-29T04:25:35;20.90;79.00
20795;DHT22;28087;-33.874;151.240;2023-04-29T04:28:31;20.90;78.80
20795;DHT22;28087;-33.874;151.240;2023-04-29T04:31:23;20.90;79.00
20795;DHT22;28087;-33.874;151.240;2023-04-29T04:33:59;20.70;79.00
20795;DHT22;28087;-33.874;151.240;2023-04-29T04:36:37;20.80;79.10
20795;DHT22;28087;-33.874;151.240;2023-04-29T04:39:13;20.90;79.40
20795;DHT22;28087;-33.874;151.240;2023-04-29T04:41:49;21.00;79.10
20795;DHT22;28087;-33.874;151.240;2023-04-29T04:44:26;21.10;78.70
20795;DHT22;28087;-33.874;151.240;2023-04-29T04:47:10;21.00;78.60
20795;DHT22;28087;-33.874;151.240;2023-04-29T04:50:12;21.20;78.60
20795;DHT22;28087;-33.874;151.240;2023-04-29T04:52:53;21.10;78.50
20795;DHT22;28087;-33.874;151.240;2023-04-29T04:55:50;21.10;78.50
20795;DHT22;28087;-33.874;151.240;2023-04-29T04:58:26;21.10;78.40
20795;DHT22;28087;-33.874;151.240;2023-04-29T05:01:03;21.10;78.60
20795;DHT22;28087;-33.874;151.240;2023-04-29T05:03:39;21.20;78.40
20795;DHT22;28087;-33.874;151.240;2023-04-29T05:06:15;21.10;78.30
20795;DHT22;28087;-33.874;151.240;2023-04-29T05:08:54;21.20;78.20
20795;DHT22;28087;-33.874;151.240;2023-04-29T05:11:29;21.10;78.20
20795;DHT22;28087;-33.874;151.240;2023-04-29T05:14:12;21.10;78.40
20795;DHT22;28087;-33.874;151.240;2023-04-29T05:16:48;21.00;78.60
20795;DHT22;28087;-33.874;151.240;2023-04-29T05:19:25;21.10;78.10
20795;DHT22;28087;-33.874;151.240;2023-04-29T05:22:02;21.00;78.20
20795;DHT22;28087;-33.874;151.240;2023-04-29T05:24:39;21.00;78.10
20795;DHT22;28087;-33.874;151.240;2023-04-29T05:27:15;20.80;78.50
20795;DHT22;28087;-33.874;151.240;2023-04-29T05:29:51;20.90;78.30
20795;DHT22;28087;-33.874;151.240;2023-04-29T05:32:29;20.80;78.20
20795;DHT22;28087;-33.874;151.240;2023-04-29T05:35:08;20.90;77.90
20795;DHT22;28087;-33.874;151.240;2023-04-29T05:37:44;20.90;77.90
20795;DHT22;28087;-33.874;151.240;2023-04-29T05:40:38;20.80;77.90
20795;DHT22;28087;-33.874;151.240;2023-04-29T05:43:36;20.90;78.10
20795;DHT22;28087;-33.874;151.240;2023-04-29T05:46:15;20.80;78.10
20795;DHT22;28087;-33.874;151.240;2023-04-29T05:48:52;20.60;77.50
20795;DHT22;28087;-33.874;151.240;2023-04-29T05:51:30;20.50;77.90
20795;DHT22;28087;-33.874;151.240;2023-04-29T05:54:06;20.60;78.00
20795;DHT22;28087;-33.874;151.240;2023-04-29T05:57:02;20.80;78.00
20795;DHT22;28087;-33.874;151.240;2023-04-29T05:59:38;20.80;77.80
20795;DHT22;28087;-33.874;151.240;2023-04-29T06:02:16;20.80;77.40
20795;DHT22;28087;-33.874;151.240;2023-04-29T06:04:53;20.80;77.70
20795;DHT22;28087;-33.874;151.240;2023-04-29T06:07:46;20.60;77.60
20795;DHT22;28087;-33.874;151.240;2023-04-29T06:10:47;20.70;77.50
20795;DHT22;28087;-33.874;151.240;2023-04-29T06:13:29;20.70;77.70
20795;DHT22;28087;-33.874;151.240;2023-04-29T06:16:07;20.70;78.10
20795;DHT22;28087;-33.874;151.240;2023-04-29T06:18:44;20.80;77.90
20795;DHT22;28087;-33.874;151.240;2023-04-29T06:21:20;20.70;77.80
20795;DHT22;28087;-33.874;151.240;2023-04-29T06:23:57;20.70;77.90
20795;DHT22;28087;-33.874;151.240;2023-04-29T06:26:33;20.60;77.90
20795;DHT22;28087;-33.874;151.240;2023-04-29T06:29:11;20.50;78.30
20795;DHT22;28087;-33.874;151.240;2023-04-29T06:31:48;20.50;78.30
20795;DHT22;28087;-33.874;151.240;2023-04-29T06:34:26;20.60;78.20
20795;DHT22;28087;-33.874;151.240;2023-04-29T06:37:30;20.70;78.30
20795;DHT22;28087;-33.874;151.240;2023-04-29T06:40:25;20.70;78.10
20795;DHT22;28087;-33.874;151.240;2023-04-29T06:43:25;20.80;78.50
20795;DHT22;28087;-33.874;151.240;2023-04-29T06:46:20;20.80;78.20
20795;DHT22;28087;-33.874;151.240;2023-04-29T06:49:05;20.80;78.50
20795;DHT22;28087;-33.874;151.240;2023-04-29T06:51:41;20.70;78.50
20795;DHT22;28087;-33.874;151.240;2023-04-29T06:54:16;20.60;78.50
20795;DHT22;28087;-33.874;151.240;2023-04-29T06:56:53;20.70;78.50
20795;DHT22;28087;-33.874;151.240;2023-04-29T06:59:29;20.80;78.60
20795;DHT22;28087;-33.874;151.240;2023-04-29T07:02:08;20.60;78.50
20795;DHT22;28087;-33.874;151.240;2023-04-29T07:04:44;20.70;78.80
20795;DHT22;28087;-33.874;151.240;2023-04-29T07:07:24;20.60;79.00
20795;DHT22;28087;-33.874;151.240;2023-04-29T07:09:59;20.50;78.90
20795;DHT22;28087;-33.874;151.240;2023-04-29T07:12:35;20.50;78.90
20795;DHT22;28087;-33.874;151.240;2023-04-29T07:15:16;20.50;79.40
20795;DHT22;28087;-33.874;151.240;2023-04-29T07:17:55;20.50;79.60
20795;DHT22;28087;-33.874;151.240;2023-04-29T07:20:38;20.60;79.40
20795;DHT22;28087;-33.874;151.240;2023-04-29T07:23:15;20.70;79.30
20795;DHT22;28087;-33.874;151.240;2023-04-29T07:25:54;20.60;79.30
20795;DHT22;28087;-33.874;151.240;2023-04-29T07:28:30;20.50;79.50
20795;DHT22;28087;-33.874;151.240;2023-04-29T07:31:06;20.60;79.70
20795;DHT22;28087;-33.874;151.240;2023-04-29T07:33:45;20.50;79.80
20795;DHT22;28087;-33.874;151.240;2023-04-29T07:36:20;20.40;80.10
20795;DHT22;28087;-33.874;151.240;2023-04-29T07:38:56;20.40;80.10
20795;DHT22;28087;-33.874;151.240;2023-04-29T07:41:33;20.40;80.00
20795;DHT22;28087;-33.874;151.240;2023-04-29T07:44:09;20.50;80.10
20795;DHT22;28087;-33.874;151.240;2023-04-29T07:46:45;20.40;80.30
20795;DHT22;28087;-33.874;151.240;2023-04-29T07:49:25;20.40;80.30
20795;DHT22;28087;-33.874;151.240;2023-04-29T07:52:00;20.40;80.20
20795;DHT22;28087;-33.874;151.240;2023-04-29T07:54:36;20.40;80.20
20795;DHT22;28087;-33.874;151.240;2023-04-29T07:57:11;20.30;80.30
20795;DHT22;28087;-33.874;151.240;2023-04-29T07:59:51;20.30;80.30
20795;DHT22;28087;-33.874;151.240;2023-04-29T08:02:27;20.20;80.30
20795;DHT22;28087;-33.874;151.240;2023-04-29T08:05:10;20.20;80.30
20795;DHT22;28087;-33.874;151.240;2023-04-29T08:07:48;20.30;80.30
20795;DHT22;28087;-33.874;151.240;2023-04-29T08:10:27;20.30;80.30
20795;DHT22;28087;-33.874;151.240;2023-04-29T08:13:02;20.20;80.30
20795;DHT22;28087;-33.874;151.240;2023-04-29T08:15:38;20.30;80.30
20795;DHT22;28087;-33.874;151.240;2023-04-29T08:18:13;20.30;80.30
20795;DHT22;28087;-33.874;151.240;2023-04-29T08:20:52;20.30;80.30
20795;DHT22;28087;-33.874;151.240;2023-04-29T08:23:27;20.30;80.30
20795;DHT22;28087;-33.874;151.240;2023-04-29T08:26:07;20.20;80.30
20795;DHT22;28087;-33.874;151.240;2023-04-29T08:28:44;20.30;80.30
20795;DHT22;28087;-33.874;151.240;2023-04-29T08:31:29;20.20;80.30
20795;DHT22;28087;-33.874;151.240;2023-04-29T08:34:07;20.20;80.30
20795;DHT22;28087;-33.874;151.240;2023-04-29T08:36:46;20.30;80.30
20795;DHT22;28087;-33.874;151.240;2023-04-29T08:39:22;20.20;80.30
20795;DHT22;28087;-33.874;151.240;2023-04-29T08:41:58;20.10;80.30
20795;DHT22;28087;-33.874;151.240;2023-04-29T08:44:34;20.10;80.30
20795;DHT22;28087;-33.874;151.240;2023-04-29T08:47:14;20.10;80.30
20795;DHT22;28087;-33.874;151.240;2023-04-29T08:49:50;20.20;80.30
20795;DHT22;28087;-33.874;151.240;2023-04-29T08:52:29;20.20;80.30
20795;DHT22;28087;-33.874;151.240;2023-04-29T08:55:29;20.20;80.30
20795;DHT22;28087;-33.874;151.240;2023-04-29T08:58:15;20.20;80.20
20795;DHT22;28087;-33.874;151.240;2023-04-29T09:04:44;20.30;80.20
20795;DHT22;28087;-33.874;151.240;2023-04-29T09:07:29;20.30;80.30
20795;DHT22;28087;-33.874;151.240;2023-04-29T09:10:08;20.30;80.30
20795;DHT22;28087;-33.874;151.240;2023-04-29T09:13:48;20.40;80.30
20795;DHT22;28087;-33.874;151.240;2023-04-29T09:16:03;20.30;80.30
20795;DHT22;28087;-33.874;151.240;2023-04-29T09:18:49;20.20;80.30
20795;DHT22;28087;-33.874;151.240;2023-04-29T09:21:55;20.20;80.30
20795;DHT22;28087;-33.874;151.240;2023-04-29T09:25:23;20.20;80.30
20795;DHT22;28087;-33.874;151.240;2023-04-29T09:28:25;20.20;80.30
20795;DHT22;28087;-33.874;151.240;2023-04-29T09:31:02;20.30;80.30
20795;DHT22;28087;-33.874;151.240;2023-04-29T09:33:54;20.30;80.30
20795;DHT22;28087;-33.874;151.240;2023-04-29T09:36:40;20.20;80.30
20795;DHT22;28087;-33.874;151.240;2023-04-29T09:39:19;20.30;80.30
20795;DHT22;28087;-33.874;151.240;2023-04-29T09:42:01;20.40;80.30
20795;DHT22;28087;-33.874;151.240;2023-04-29T09:44:48;20.40;80.30
20795;DHT22;28087;-33.874;151.240;2023-04-29T09:47:43;20.40;80.30
20795;DHT22;28087;-33.874;151.240;2023-04-29T09:51:00;20.40;80.30
20795;DHT22;28087;-33.874;151.240;2023-04-29T09:54:06;20.40;80.30
20795;DHT22;28087;-33.874;151.240;2023-04-29T09:57:10;20.50;80.30
20795;DHT22;28087;-33.874;151.240;2023-04-29T10:00:29;20.30;80.30
20795;DHT22;28087;-33.874;151.240;2023-04-29T10:03:43;20.30;80.30
20795;DHT22;28087;-33.874;151.240;2023-04-29T10:06:23;20.30;80.30
20795;DHT22;28087;-33.874;151.240;2023-04-29T10:09:23;20.40;80.30
20795;DHT22;28087;-33.874;151.240;2023-04-29T10:12:50;20.20;80.30
20795;DHT22;28087;-33.874;151.240;2023-04-29T10:15:48;20.20;80.30
20795;DHT22;28087;-33.874;151.240;2023-04-29T10:19:06;20.20;80.30
20795;DHT22;28087;-33.874;151.240;2023-04-29T10:22:03;20.30;80.30
20795;DHT22;28087;-33.874;151.240;2023-04-29T10:24:53;20.20;80.30
20795;DHT22;28087;-33.874;151.240;2023-04-29T10:27:33;20.20;80.30
20795;DHT22;28087;-33.874;151.240;2023-04-29T10:30:12;20.20;80.30
20795;DHT22;28087;-33.874;151.240;2023-04-29T10:32:49;20.20;80.30
20795;DHT22;28087;-33.874;151.240;2023-04-29T10:35:25;20.20;80.30
20795;DHT22;28087;-33.874;151.240;2023-04-29T10:38:12;20.20;80.30
20795;DHT22;28087;-33.874;151.240;2023-04-29T10:41:01;20.20;80.30
20795;DHT22;28087;-33.874;151.240;2023-04-29T10:43:40;20.20;80.30
20795;DHT22;28087;-33.874;151.240;2023-04-29T10:46:20;20.10;80.30
20795;DHT22;28087;-33.874;151.240;2023-04-29T10:49:01;20.20;80.30
20795;DHT22;28087;-33.874;151.240;2023-04-29T10:51:40;20.10;80.30
20795;DHT22;28087;-33.874;151.240;2023-04-29T10:54:18;20.20;80.30
20795;DHT22;28087;-33.874;151.240;2023-04-29T10:56:57;20.10;80.30
20795;DHT22;28087;-33.874;151.240;2023-04-29T10:59:47;20.10;80.30
20795;DHT22;28087;-33.874;151.240;2023-04-29T11:02:22;20.00;80.30
20795;DHT22;28087;-33.874;151.240;2023-04-29T11:05:09;20.00;80.30
20795;DHT22;28087;-33.874;151.240;2023-04-29T11:07:46;20.00;80.30
20795;DHT22;28087;-33.874;151.240;2023-04-29T11:10:36;20.00;80.30
20795;DHT22;28087;-33.874;151.240;2023-04-29T11:13:29;20.00;80.30
20795;DHT22;28087;-33.874;151.240;2023-04-29T11:16:09;20.00;80.30
20795;DHT22;28087;-33.874;151.240;2023-04-29T11:19:03;19.90;80.30
20795;DHT22;28087;-33.874;151.240;2023-04-29T11:21:39;19.90;80.30
20795;DHT22;28087;-33.874;151.240;2023-04-29T11:24:15;19.90;80.30
20795;DHT22;28087;-33.874;151.240;2023-04-29T11:26:52;19.90;80.30
20795;DHT22;28087;-33.874;151.240;2023-04-29T11:29:32;19.90;80.30
20795;DHT22;28087;-33.874;151.240;2023-04-29T11:32:18;19.80;80.30
20795;DHT22;28087;-33.874;151.240;2023-04-29T11:35:10;19.80;80.30
20795;DHT22;28087;-33.874;151.240;2023-04-29T11:37:55;19.90;80.30
20795;DHT22;28087;-33.874;151.240;2023-04-29T11:40:32;19.80;80.30
20795;DHT22;28087;-33.874;151.240;2023-04-29T11:43:14;19.80;80.30
20795;DHT22;28087;-33.874;151.240;2023-04-29T11:45:54;19.70;80.30
20795;DHT22;28087;-33.874;151.240;2023-04-29T11:48:32;19.70;80.30
20795;DHT22;28087;-33.874;151.240;2023-04-29T11:51:08;19.70;80.30
20795;DHT22;28087;-33.874;151.240;2023-04-29T11:53:45;19.70;80.30
20795;DHT22;28087;-33.874;151.240;2023-04-29T11:56:25;19.70;80.30
20795;DHT22;28087;-33.874;151.240;2023-04-29T11:59:01;19.60;80.30
20795;DHT22;28087;-33.874;151.240;2023-04-29T12:01:39;19.70;80.30
20795;DHT22;28087;-33.874;151.240;2023-04-29T12:04:18;19.70;80.30
20795;DHT22;28087;-33.874;151.240;2023-04-29T12:06:57;19.70;80.30
20795;DHT22;28087;-33.874;151.240;2023-04-29T12:09:44;19.50;80.30
20795;DHT22;28087;-33.874;151.240;2023-04-29T12:12:20;19.60;80.30
20795;DHT22;28087;-33.874;151.240;2023-04-29T12:14:57;19.50;80.30
20795;DHT22;28087;-33.874;151.240;2023-04-29T12:17:34;19.50;80.30
20795;DHT22;28087;-33.874;151.240;2023-04-29T12:20:15;19.50;80.30
20795;DHT22;28087;-33.874;151.240;2023-04-29T12:22:51;19.50;80.30
20795;DHT22;28087;-33.874;151.240;2023-04-29T12:25:27;19.40;80.30
20795;DHT22;28087;-33.874;151.240;2023-04-29T12:28:12;19.40;80.30
20795;DHT22;28087;-33.874;151.240;2023-04-29T12:30:48;19.40;80.30
20795;DHT22;28087;-33.874;151.240;2023-04-29T12:33:26;19.30;80.30
20795;DHT22;28087;-33.874;151.240;2023-04-29T12:36:14;19.40;80.30
20795;DHT22;28087;-33.874;151.240;2023-04-29T12:38:49;19.40;80.30
20795;DHT22;28087;-33.874;151.240;2023-04-29T12:41:45;19.60;80.30
20795;DHT22;28087;-33.874;151.240;2023-04-29T12:44:21;19.60;80.30
20795;DHT22;28087;-33.874;151.240;2023-04-29T12:47:07;19.50;80.30
20795;DHT22;28087;-33.874;151.240;2023-04-29T12:49:45;19.40;80.30
20795;DHT22;28087;-33.874;151.240;2023-04-29T12:52:24;19.40;80.30
20795;DHT22;28087;-33.874;151.240;2023-04-29T12:55:06;19.30;80.30
20795;DHT22;28087;-33.874;151.240;2023-04-29T12:57:42;19.20;80.30
20795;DHT22;28087;-33.874;151.240;2023-04-29T13:00:19;19.20;80.30
20795;DHT22;28087;-33.874;151.240;2023-04-29T13:02:55;19.20;80.30
20795;DHT22;28087;-33.874;151.240;2023-04-29T13:05:33;19.30;80.30
20795;DHT22;28087;-33.874;151.240;2023-04-29T13:08:10;19.20;80.30
20795;DHT22;28087;-33.874;151.240;2023-04-29T13:10:46;19.30;80.30
20795;DHT22;28087;-33.874;151.240;2023-04-29T13:13:23;19.10;80.30
20795;DHT22;28087;-33.874;151.240;2023-04-29T13:15:59;19.00;80.30
20795;DHT22;28087;-33.874;151.240;2023-04-29T13:18:36;18.90;80.30
20795;DHT22;28087;-33.874;151.240;2023-04-29T13:21:28;19.00;80.30
20795;DHT22;28087;-33.874;151.240;2023-04-29T13:24:06;18.90;80.30
20795;DHT22;28087;-33.874;151.240;2023-04-29T13:26:42;18.80;80.30
20795;DHT22;28087;-33.874;151.240;2023-04-29T13:29:20;18.90;80.30
20795;DHT22;28087;-33.874;151.240;2023-04-29T13:31:58;18.90;80.30
20795;DHT22;28087;-33.874;151.240;2023-04-29T13:34:34;18.90;80.30
20795;DHT22;28087;-33.874;151.240;2023-04-29T13:37:13;18.80;80.30
20795;DHT22;28087;-33.874;151.240;2023-04-29T13:39:50;18.70;80.30
20795;DHT22;28087;-33.874;151.240;2023-04-29T13:42:27;18.70;80.30
20795;DHT22;28087;-33.874;151.240;2023-04-29T13:45:19;18.70;80.30
20795;DHT22;28087;-33.874;151.240;2023-04-29T13:47:59;18.60;80.30
20795;DHT22;28087;-33.874;151.240;2023-04-29T13:50:55;18.40;80.30
20795;DHT22;28087;-33.874;151.240;2023-04-29T13:53:32;18.40;80.30
20795;DHT22;28087;-33.874;151.240;2023-04-29T13:56:30;18.40;80.30
